Aloha, Oregon
Current Conditions -  °F | °C
As of 12:53 AM on Wednesday 26 Nov 2014 (Local Time) from KHIO Reporting Station
Overcast Overcast  
Wind Chill: 13°   Ceiling: 5000
Heat Index: 13°   Visibility: 10mi
Dew Point: 12°   Wind: 3mph
Humidity: 93%   Direction: 170°S
Pressure: 30.27"   Gusts: NA
Location:  45.49°N, 122.86°W
Report Text: KHIO 260853Z AUTO 17003KT 10SM OVC050 13/12 A3027 RMK AO2 SLP250 T01280117 56001
Loading
Personal Weather Stations






























Interactive Weather Map New forecast layout! Learn more

10-Day Weather Forecast

Advertisements
Track Severe Weather on mobile